sensor_id;sensor_type;location;lat;lon;timestamp;P1;durP1;ratioP1;P2;durP2;ratioP2
59416;SDS011;45222;52.458;20.914;2023-01-08T00:02:27;43.00;;;32.60;;
59416;SDS011;45222;52.458;20.914;2023-01-08T00:06:15;43.50;;;32.10;;
59416;SDS011;45222;52.458;20.914;2023-01-08T00:10:05;41.50;;;31.90;;
59416;SDS011;45222;52.458;20.914;2023-01-08T00:17:40;43.30;;;20.80;;
59416;SDS011;45222;52.458;20.914;2023-01-08T00:21:28;42.90;;;32.50;;
59416;SDS011;45222;52.458;20.914;2023-01-08T00:25:16;45.80;;;34.30;;
59416;SDS011;45222;52.458;20.914;2023-01-08T00:29:04;42.50;;;33.70;;
59416;SDS011;45222;52.458;20.914;2023-01-08T00:32:52;40.70;;;31.10;;
59416;SDS011;45222;52.458;20.914;2023-01-08T00:36:40;40.60;;;31.70;;
59416;SDS011;45222;52.458;20.914;2023-01-08T00:40:28;42.80;;;31.80;;
59416;SDS011;45222;52.458;20.914;2023-01-08T00:44:17;43.20;;;32.80;;
59416;SDS011;45222;52.458;20.914;2023-01-08T00:48:05;46.70;;;33.90;;
59416;SDS011;45222;52.458;20.914;2023-01-08T00:51:53;46.50;;;35.20;;
59416;SDS011;45222;52.458;20.914;2023-01-08T00:55:42;45.00;;;18.50;;
59416;SDS011;45222;52.458;20.914;2023-01-08T00:59:29;44.30;;;31.20;;
59416;SDS011;45222;52.458;20.914;2023-01-08T01:03:17;42.00;;;31.00;;
59416;SDS011;45222;52.458;20.914;2023-01-08T01:07:05;42.80;;;19.30;;
59416;SDS011;45222;52.458;20.914;2023-01-08T01:10:53;39.50;;;29.30;;
59416;SDS011;45222;52.458;20.914;2023-01-08T01:14:41;41.00;;;30.80;;
59416;SDS011;45222;52.458;20.914;2023-01-08T01:18:29;41.70;;;33.00;;
59416;SDS011;45222;52.458;20.914;2023-01-08T01:22:17;39.40;;;29.70;;
59416;SDS011;45222;52.458;20.914;2023-01-08T01:26:12;41.40;;;29.30;;
59416;SDS011;45222;52.458;20.914;2023-01-08T01:30:02;39.00;;;28.80;;
59416;SDS011;45222;52.458;20.914;2023-01-08T01:33:51;38.30;;;29.50;;
59416;SDS011;45222;52.458;20.914;2023-01-08T01:37:39;36.40;;;28.10;;
59416;SDS011;45222;52.458;20.914;2023-01-08T01:41:28;34.90;;;27.00;;
59416;SDS011;45222;52.458;20.914;2023-01-08T01:45:18;31.20;;;14.90;;
59416;SDS011;45222;52.458;20.914;2023-01-08T01:49:09;35.20;;;16.00;;
59416;SDS011;45222;52.458;20.914;2023-01-08T01:53:00;35.50;;;27.60;;
59416;SDS011;45222;52.458;20.914;2023-01-08T01:56:52;33.40;;;26.40;;
59416;SDS011;45222;52.458;20.914;2023-01-08T02:00:41;29.00;;;25.00;;
59416;SDS011;45222;52.458;20.914;2023-01-08T02:04:29;29.90;;;24.00;;
59416;SDS011;45222;52.458;20.914;2023-01-08T02:08:19;31.40;;;24.80;;
59416;SDS011;45222;52.458;20.914;2023-01-08T02:12:13;30.60;;;26.00;;
59416;SDS011;45222;52.458;20.914;2023-01-08T02:16:10;29.60;;;25.10;;
59416;SDS011;45222;52.458;20.914;2023-01-08T02:20:05;32.80;;;15.30;;
59416;SDS011;45222;52.458;20.914;2023-01-08T02:23:58;28.90;;;24.10;;
59416;SDS011;45222;52.458;20.914;2023-01-08T02:27:50;30.00;;;23.80;;
59416;SDS011;45222;52.458;20.914;2023-01-08T02:39:15;32.50;;;15.20;;
59416;SDS011;45222;52.458;20.914;2023-01-08T02:43:12;29.40;;;13.90;;
59416;SDS011;45222;52.458;20.914;2023-01-08T02:47:11;27.80;;;22.00;;
59416;SDS011;45222;52.458;20.914;2023-01-08T02:51:07;27.10;;;21.80;;
59416;SDS011;45222;52.458;20.914;2023-01-08T02:54:58;28.00;;;22.40;;
59416;SDS011;45222;52.458;20.914;2023-01-08T02:58:48;29.90;;;24.20;;
59416;SDS011;45222;52.458;20.914;2023-01-08T03:02:38;28.30;;;13.40;;
59416;SDS011;45222;52.458;20.914;2023-01-08T03:06:28;27.70;;;21.30;;
59416;SDS011;45222;52.458;20.914;2023-01-08T03:10:17;24.20;;;19.60;;
59416;SDS011;45222;52.458;20.914;2023-01-08T03:14:08;23.80;;;19.90;;
59416;SDS011;45222;52.458;20.914;2023-01-08T03:18:02;24.70;;;19.50;;
59416;SDS011;45222;52.458;20.914;2023-01-08T03:21:54;24.60;;;20.70;;
59416;SDS011;45222;52.458;20.914;2023-01-08T03:25:43;24.90;;;19.60;;
59416;SDS011;45222;52.458;20.914;2023-01-08T03:29:33;21.90;;;17.40;;
59416;SDS011;45222;52.458;20.914;2023-01-08T03:33:24;21.60;;;17.00;;
59416;SDS011;45222;52.458;20.914;2023-01-08T03:37:15;22.40;;;17.80;;
59416;SDS011;45222;52.458;20.914;2023-01-08T03:41:07;23.60;;;17.80;;
59416;SDS011;45222;52.458;20.914;2023-01-08T03:44:58;20.10;;;16.10;;
59416;SDS011;45222;52.458;20.914;2023-01-08T03:48:47;20.10;;;16.10;;
59416;SDS011;45222;52.458;20.914;2023-01-08T03:52:36;22.30;;;15.50;;
59416;SDS011;45222;52.458;20.914;2023-01-08T03:56:23;21.70;;;16.10;;
59416;SDS011;45222;52.458;20.914;2023-01-08T04:00:12;22.00;;;17.20;;
59416;SDS011;45222;52.458;20.914;2023-01-08T04:04:01;22.50;;;16.50;;
59416;SDS011;45222;52.458;20.914;2023-01-08T04:07:49;22.40;;;16.30;;
59416;SDS011;45222;52.458;20.914;2023-01-08T04:11:39;22.30;;;9.40;;
59416;SDS011;45222;52.458;20.914;2023-01-08T04:15:27;20.30;;;15.00;;
59416;SDS011;45222;52.458;20.914;2023-01-08T04:19:15;20.90;;;15.40;;
59416;SDS011;45222;52.458;20.914;2023-01-08T04:23:03;18.70;;;7.60;;
59416;SDS011;45222;52.458;20.914;2023-01-08T04:26:51;23.40;;;9.80;;
59416;SDS011;45222;52.458;20.914;2023-01-08T04:30:39;20.50;;;9.20;;
59416;SDS011;45222;52.458;20.914;2023-01-08T04:34:27;16.00;;;7.20;;
59416;SDS011;45222;52.458;20.914;2023-01-08T04:38:15;19.00;;;13.70;;
59416;SDS011;45222;52.458;20.914;2023-01-08T04:42:03;19.70;;;14.80;;
59416;SDS011;45222;52.458;20.914;2023-01-08T04:45:51;18.40;;;14.20;;
59416;SDS011;45222;52.458;20.914;2023-01-08T04:49:42;17.40;;;12.60;;
59416;SDS011;45222;52.458;20.914;2023-01-08T04:53:32;17.70;;;8.30;;
59416;SDS011;45222;52.458;20.914;2023-01-08T04:57:21;17.50;;;12.30;;
59416;SDS011;45222;52.458;20.914;2023-01-08T05:01:12;18.60;;;7.50;;
59416;SDS011;45222;52.458;20.914;2023-01-08T05:05:03;17.80;;;13.20;;
59416;SDS011;45222;52.458;20.914;2023-01-08T05:08:52;15.60;;;7.30;;
59416;SDS011;45222;52.458;20.914;2023-01-08T05:12:40;17.00;;;11.90;;
59416;SDS011;45222;52.458;20.914;2023-01-08T05:16:28;17.20;;;12.40;;
59416;SDS011;45222;52.458;20.914;2023-01-08T05:20:17;17.30;;;12.60;;
59416;SDS011;45222;52.458;20.914;2023-01-08T05:24:05;14.60;;;7.20;;
59416;SDS011;45222;52.458;20.914;2023-01-08T05:27:54;18.60;;;14.20;;
59416;SDS011;45222;52.458;20.914;2023-01-08T05:31:41;18.80;;;8.50;;
59416;SDS011;45222;52.458;20.914;2023-01-08T05:35:29;18.60;;;13.80;;
59416;SDS011;45222;52.458;20.914;2023-01-08T05:39:18;14.90;;;6.60;;
59416;SDS011;45222;52.458;20.914;2023-01-08T05:43:06;15.90;;;12.50;;
59416;SDS011;45222;52.458;20.914;2023-01-08T05:46:54;17.70;;;12.60;;
59416;SDS011;45222;52.458;20.914;2023-01-08T05:50:42;18.70;;;8.80;;
59416;SDS011;45222;52.458;20.914;2023-01-08T05:54:30;17.90;;;7.50;;
59416;SDS011;45222;52.458;20.914;2023-01-08T05:58:18;17.30;;;12.30;;
59416;SDS011;45222;52.458;20.914;2023-01-08T06:02:07;16.50;;;12.30;;
59416;SDS011;45222;52.458;20.914;2023-01-08T06:09:44;15.90;;;11.40;;
59416;SDS011;45222;52.458;20.914;2023-01-08T06:13:32;16.60;;;6.70;;
59416;SDS011;45222;52.458;20.914;2023-01-08T06:17:21;19.10;;;13.00;;
59416;SDS011;45222;52.458;20.914;2023-01-08T06:21:09;16.90;;;12.80;;
59416;SDS011;45222;52.458;20.914;2023-01-08T06:24:57;17.70;;;8.20;;
59416;SDS011;45222;52.458;20.914;2023-01-08T06:28:45;16.40;;;12.10;;
59416;SDS011;45222;52.458;20.914;2023-01-08T06:32:33;16.80;;;12.10;;
59416;SDS011;45222;52.458;20.914;2023-01-08T06:36:21;19.60;;;13.60;;
59416;SDS011;45222;52.458;20.914;2023-01-08T06:40:10;19.00;;;13.60;;
59416;SDS011;45222;52.458;20.914;2023-01-08T06:43:58;17.10;;;8.40;;
59416;SDS011;45222;52.458;20.914;2023-01-08T06:47:46;16.40;;;12.10;;
59416;SDS011;45222;52.458;20.914;2023-01-08T06:51:34;17.80;;;11.90;;
59416;SDS011;45222;52.458;20.914;2023-01-08T06:55:22;17.60;;;12.20;;
59416;SDS011;45222;52.458;20.914;2023-01-08T06:59:10;17.10;;;12.80;;
59416;SDS011;45222;52.458;20.914;2023-01-08T07:02:58;17.10;;;13.00;;
59416;SDS011;45222;52.458;20.914;2023-01-08T07:06:46;16.70;;;12.90;;
59416;SDS011;45222;52.458;20.914;2023-01-08T07:10:34;16.90;;;7.10;;
59416;SDS011;45222;52.458;20.914;2023-01-08T07:14:22;17.90;;;7.90;;
59416;SDS011;45222;52.458;20.914;2023-01-08T07:18:10;16.40;;;12.00;;
59416;SDS011;45222;52.458;20.914;2023-01-08T07:21:58;16.30;;;11.50;;
59416;SDS011;45222;52.458;20.914;2023-01-08T07:25:46;16.70;;;11.90;;
59416;SDS011;45222;52.458;20.914;2023-01-08T07:29:34;17.90;;;13.90;;
59416;SDS011;45222;52.458;20.914;2023-01-08T07:33:21;19.30;;;13.40;;
59416;SDS011;45222;52.458;20.914;2023-01-08T07:37:10;19.40;;;8.00;;
59416;SDS011;45222;52.458;20.914;2023-01-08T07:40:58;17.50;;;12.50;;
59416;SDS011;45222;52.458;20.914;2023-01-08T07:44:46;17.50;;;12.90;;
59416;SDS011;45222;52.458;20.914;2023-01-08T07:48:33;17.60;;;13.00;;
59416;SDS011;45222;52.458;20.914;2023-01-08T07:52:21;17.00;;;13.30;;
59416;SDS011;45222;52.458;20.914;2023-01-08T07:56:09;18.70;;;14.00;;
59416;SDS011;45222;52.458;20.914;2023-01-08T07:59:57;17.60;;;12.80;;
59416;SDS011;45222;52.458;20.914;2023-01-08T08:03:45;18.70;;;14.20;;
59416;SDS011;45222;52.458;20.914;2023-01-08T08:07:33;18.60;;;14.20;;
59416;SDS011;45222;52.458;20.914;2023-01-08T08:11:21;21.50;;;15.50;;
59416;SDS011;45222;52.458;20.914;2023-01-08T08:15:09;20.40;;;9.30;;
59416;SDS011;45222;52.458;20.914;2023-01-08T08:18:58;19.10;;;14.30;;
59416;SDS011;45222;52.458;20.914;2023-01-08T08:22:46;24.30;;;9.90;;
59416;SDS011;45222;52.458;20.914;2023-01-08T08:26:34;18.80;;;13.60;;
59416;SDS011;45222;52.458;20.914;2023-01-08T08:30:22;19.00;;;13.70;;
59416;SDS011;45222;52.458;20.914;2023-01-08T08:34:10;19.90;;;14.10;;
59416;SDS011;45222;52.458;20.914;2023-01-08T08:37:58;17.60;;;8.30;;
59416;SDS011;45222;52.458;20.914;2023-01-08T08:41:46;19.70;;;13.70;;
59416;SDS011;45222;52.458;20.914;2023-01-08T08:45:34;18.90;;;13.30;;
59416;SDS011;45222;52.458;20.914;2023-01-08T08:49:22;15.40;;;7.30;;
59416;SDS011;45222;52.458;20.914;2023-01-08T08:53:10;18.50;;;14.00;;
59416;SDS011;45222;52.458;20.914;2023-01-08T08:56:58;22.00;;;9.00;;
59416;SDS011;45222;52.458;20.914;2023-01-08T09:00:46;20.30;;;14.30;;
59416;SDS011;45222;52.458;20.914;2023-01-08T09:04:34;20.80;;;13.70;;
59416;SDS011;45222;52.458;20.914;2023-01-08T09:08:22;17.70;;;13.40;;
59416;SDS011;45222;52.458;20.914;2023-01-08T09:12:11;18.20;;;13.60;;
59416;SDS011;45222;52.458;20.914;2023-01-08T09:15:59;21.10;;;16.00;;
59416;SDS011;45222;52.458;20.914;2023-01-08T09:19:50;22.30;;;10.10;;
59416;SDS011;45222;52.458;20.914;2023-01-08T09:23:41;21.30;;;15.80;;
59416;SDS011;45222;52.458;20.914;2023-01-08T09:27:29;21.00;;;15.90;;
59416;SDS011;45222;52.458;20.914;2023-01-08T09:31:17;20.20;;;16.10;;
59416;SDS011;45222;52.458;20.914;2023-01-08T09:35:05;20.50;;;16.10;;
59416;SDS011;45222;52.458;20.914;2023-01-08T09:38:54;18.30;;;8.70;;
59416;SDS011;45222;52.458;20.914;2023-01-08T09:42:42;24.30;;;16.50;;
59416;SDS011;45222;52.458;20.914;2023-01-08T09:46:39;22.70;;;15.70;;
59416;SDS011;45222;52.458;20.914;2023-01-08T09:50:27;20.80;;;15.40;;
59416;SDS011;45222;52.458;20.914;2023-01-08T09:54:17;21.30;;;15.90;;
59416;SDS011;45222;52.458;20.914;2023-01-08T09:58:11;24.30;;;18.40;;
59416;SDS011;45222;52.458;20.914;2023-01-08T10:02:11;24.30;;;18.20;;
59416;SDS011;45222;52.458;20.914;2023-01-08T10:06:01;21.50;;;16.10;;
59416;SDS011;45222;52.458;20.914;2023-01-08T10:09:55;22.30;;;16.50;;
59416;SDS011;45222;52.458;20.914;2023-01-08T10:13:44;22.60;;;16.70;;
59416;SDS011;45222;52.458;20.914;2023-01-08T10:17:37;25.10;;;19.60;;
59416;SDS011;45222;52.458;20.914;2023-01-08T10:21:28;24.70;;;19.30;;
59416;SDS011;45222;52.458;20.914;2023-01-08T10:25:18;23.00;;;11.70;;
59416;SDS011;45222;52.458;20.914;2023-01-08T10:29:10;25.90;;;12.50;;
59416;SDS011;45222;52.458;20.914;2023-01-08T10:33:01;22.00;;;18.50;;
59416;SDS011;45222;52.458;20.914;2023-01-08T10:36:51;23.80;;;19.10;;
59416;SDS011;45222;52.458;20.914;2023-01-08T10:40:40;20.10;;;16.40;;
59416;SDS011;45222;52.458;20.914;2023-01-08T10:44:33;19.60;;;15.40;;
59416;SDS011;45222;52.458;20.914;2023-01-08T10:48:21;19.50;;;14.80;;
59416;SDS011;45222;52.458;20.914;2023-01-08T10:52:25;18.90;;;14.80;;
59416;SDS011;45222;52.458;20.914;2023-01-08T10:56:18;21.20;;;16.70;;
59416;SDS011;45222;52.458;20.914;2023-01-08T11:04:20;22.30;;;17.80;;
59416;SDS011;45222;52.458;20.914;2023-01-08T11:08:13;19.50;;;16.00;;
59416;SDS011;45222;52.458;20.914;2023-01-08T11:12:04;20.80;;;16.00;;
59416;SDS011;45222;52.458;20.914;2023-01-08T11:16:12;20.60;;;15.90;;
59416;SDS011;45222;52.458;20.914;2023-01-08T11:20:07;21.60;;;17.30;;
59416;SDS011;45222;52.458;20.914;2023-01-08T11:24:14;21.80;;;19.10;;
59416;SDS011;45222;52.458;20.914;2023-01-08T11:28:03;22.40;;;18.70;;
59416;SDS011;45222;52.458;20.914;2023-01-08T11:31:59;21.00;;;16.90;;
59416;SDS011;45222;52.458;20.914;2023-01-08T11:36:06;19.60;;;17.30;;
59416;SDS011;45222;52.458;20.914;2023-01-08T11:40:00;21.20;;;18.10;;
59416;SDS011;45222;52.458;20.914;2023-01-08T11:43:53;22.40;;;18.60;;
59416;SDS011;45222;52.458;20.914;2023-01-08T11:47:53;24.60;;;19.30;;
59416;SDS011;45222;52.458;20.914;2023-01-08T11:56:12;22.80;;;19.00;;
59416;SDS011;45222;52.458;20.914;2023-01-08T12:00:10;24.50;;;19.80;;
59416;SDS011;45222;52.458;20.914;2023-01-08T12:04:20;22.20;;;18.30;;
59416;SDS011;45222;52.458;20.914;2023-01-08T12:08:20;21.70;;;17.30;;
59416;SDS011;45222;52.458;20.914;2023-01-08T12:12:16;24.10;;;18.90;;
59416;SDS011;45222;52.458;20.914;2023-01-08T12:16:18;24.30;;;19.70;;
59416;SDS011;45222;52.458;20.914;2023-01-08T12:20:19;22.50;;;18.70;;
59416;SDS011;45222;52.458;20.914;2023-01-08T12:24:17;20.90;;;17.90;;
59416;SDS011;45222;52.458;20.914;2023-01-08T12:28:27;22.90;;;19.00;;
59416;SDS011;45222;52.458;20.914;2023-01-08T12:32:25;25.70;;;20.70;;
59416;SDS011;45222;52.458;20.914;2023-01-08T12:36:17;26.60;;;22.00;;
59416;SDS011;45222;52.458;20.914;2023-01-08T12:40:13;21.90;;;17.30;;
59416;SDS011;45222;52.458;20.914;2023-01-08T12:44:04;20.90;;;16.70;;
59416;SDS011;45222;52.458;20.914;2023-01-08T12:47:57;20.30;;;17.20;;
59416;SDS011;45222;52.458;20.914;2023-01-08T12:51:53;21.90;;;18.50;;
59416;SDS011;45222;52.458;20.914;2023-01-08T12:55:50;24.20;;;20.00;;
59416;SDS011;45222;52.458;20.914;2023-01-08T12:59:46;24.90;;;21.30;;
59416;SDS011;45222;52.458;20.914;2023-01-08T13:03:39;22.60;;;18.50;;
59416;SDS011;45222;52.458;20.914;2023-01-08T13:11:24;21.70;;;18.10;;
59416;SDS011;45222;52.458;20.914;2023-01-08T13:15:18;21.30;;;18.30;;
59416;SDS011;45222;52.458;20.914;2023-01-08T13:19:20;23.30;;;19.10;;
59416;SDS011;45222;52.458;20.914;2023-01-08T13:23:20;24.70;;;21.00;;
59416;SDS011;45222;52.458;20.914;2023-01-08T13:27:20;32.00;;;14.60;;
59416;SDS011;45222;52.458;20.914;2023-01-08T13:31:25;26.80;;;20.80;;
59416;SDS011;45222;52.458;20.914;2023-01-08T13:35:18;23.30;;;19.70;;
59416;SDS011;45222;52.458;20.914;2023-01-08T13:39:20;24.30;;;19.90;;
59416;SDS011;45222;52.458;20.914;2023-01-08T13:43:12;25.30;;;19.70;;
59416;SDS011;45222;52.458;20.914;2023-01-08T13:47:03;24.20;;;20.90;;
59416;SDS011;45222;52.458;20.914;2023-01-08T13:51:02;26.20;;;20.50;;
59416;SDS011;45222;52.458;20.914;2023-01-08T13:54:50;25.60;;;20.00;;
59416;SDS011;45222;52.458;20.914;2023-01-08T14:02:29;25.40;;;12.90;;
59416;SDS011;45222;52.458;20.914;2023-01-08T14:06:20;26.70;;;21.80;;
59416;SDS011;45222;52.458;20.914;2023-01-08T14:10:11;27.80;;;21.90;;
59416;SDS011;45222;52.458;20.914;2023-01-08T14:14:00;25.10;;;12.30;;
59416;SDS011;45222;52.458;20.914;2023-01-08T14:17:49;26.90;;;21.20;;
59416;SDS011;45222;52.458;20.914;2023-01-08T14:21:38;26.80;;;22.00;;
59416;SDS011;45222;52.458;20.914;2023-01-08T14:25:26;27.10;;;22.20;;
59416;SDS011;45222;52.458;20.914;2023-01-08T14:29:15;28.00;;;22.20;;
59416;SDS011;45222;52.458;20.914;2023-01-08T14:33:09;26.00;;;21.50;;
59416;SDS011;45222;52.458;20.914;2023-01-08T14:36:59;26.40;;;20.30;;
59416;SDS011;45222;52.458;20.914;2023-01-08T14:40:49;26.70;;;20.90;;
59416;SDS011;45222;52.458;20.914;2023-01-08T14:44:44;29.80;;;21.20;;
59416;SDS011;45222;52.458;20.914;2023-01-08T14:48:40;28.10;;;21.60;;
59416;SDS011;45222;52.458;20.914;2023-01-08T14:52:30;29.40;;;22.60;;
59416;SDS011;45222;52.458;20.914;2023-01-08T14:56:19;31.20;;;23.30;;
59416;SDS011;45222;52.458;20.914;2023-01-08T15:00:15;27.80;;;21.30;;
59416;SDS011;45222;52.458;20.914;2023-01-08T15:04:11;28.10;;;21.50;;
59416;SDS011;45222;52.458;20.914;2023-01-08T15:08:03;29.10;;;21.70;;
59416;SDS011;45222;52.458;20.914;2023-01-08T15:12:22;29.20;;;21.90;;
59416;SDS011;45222;52.458;20.914;2023-01-08T15:16:21;30.00;;;22.90;;
59416;SDS011;45222;52.458;20.914;2023-01-08T15:20:16;30.10;;;22.80;;
59416;SDS011;45222;52.458;20.914;2023-01-08T15:24:07;28.60;;;21.90;;
59416;SDS011;45222;52.458;20.914;2023-01-08T15:28:11;29.00;;;21.70;;
59416;SDS011;45222;52.458;20.914;2023-01-08T15:32:08;29.00;;;22.10;;
59416;SDS011;45222;52.458;20.914;2023-01-08T15:36:07;27.60;;;21.30;;
59416;SDS011;45222;52.458;20.914;2023-01-08T15:39:55;29.30;;;22.40;;
59416;SDS011;45222;52.458;20.914;2023-01-08T15:43:44;33.70;;;25.30;;
59416;SDS011;45222;52.458;20.914;2023-01-08T15:47:31;25.70;;;11.80;;
59416;SDS011;45222;52.458;20.914;2023-01-08T15:51:19;27.30;;;21.20;;
59416;SDS011;45222;52.458;20.914;2023-01-08T15:55:09;33.00;;;25.70;;
59416;SDS011;45222;52.458;20.914;2023-01-08T15:59:02;28.20;;;23.30;;
59416;SDS011;45222;52.458;20.914;2023-01-08T16:02:50;33.00;;;25.30;;
59416;SDS011;45222;52.458;20.914;2023-01-08T16:06:39;33.50;;;27.00;;
59416;SDS011;45222;52.458;20.914;2023-01-08T16:10:27;27.60;;;11.30;;
59416;SDS011;45222;52.458;20.914;2023-01-08T16:14:17;28.50;;;22.40;;
59416;SDS011;45222;52.458;20.914;2023-01-08T16:18:05;27.80;;;21.60;;
59416;SDS011;45222;52.458;20.914;2023-01-08T16:21:53;28.40;;;22.20;;
59416;SDS011;45222;52.458;20.914;2023-01-08T16:25:41;28.80;;;23.00;;
59416;SDS011;45222;52.458;20.914;2023-01-08T16:29:29;23.20;;;10.40;;
59416;SDS011;45222;52.458;20.914;2023-01-08T16:33:17;25.80;;;20.80;;
59416;SDS011;45222;52.458;20.914;2023-01-08T16:37:05;24.90;;;20.00;;
59416;SDS011;45222;52.458;20.914;2023-01-08T16:40:53;24.70;;;11.60;;
59416;SDS011;45222;52.458;20.914;2023-01-08T16:44:42;28.90;;;24.50;;
59416;SDS011;45222;52.458;20.914;2023-01-08T16:48:30;26.90;;;22.30;;
59416;SDS011;45222;52.458;20.914;2023-01-08T16:52:18;27.90;;;12.40;;
59416;SDS011;45222;52.458;20.914;2023-01-08T16:56:06;28.20;;;13.60;;
59416;SDS011;45222;52.458;20.914;2023-01-08T16:59:54;30.10;;;14.70;;
59416;SDS011;45222;52.458;20.914;2023-01-08T17:03:42;28.80;;;23.70;;
59416;SDS011;45222;52.458;20.914;2023-01-08T17:07:31;31.70;;;24.80;;
59416;SDS011;45222;52.458;20.914;2023-01-08T17:11:20;29.90;;;23.80;;
59416;SDS011;45222;52.458;20.914;2023-01-08T17:15:09;29.40;;;13.80;;
59416;SDS011;45222;52.458;20.914;2023-01-08T17:18:57;30.00;;;13.50;;
59416;SDS011;45222;52.458;20.914;2023-01-08T17:22:45;28.90;;;23.20;;
59416;SDS011;45222;52.458;20.914;2023-01-08T17:26:33;29.90;;;24.10;;
59416;SDS011;45222;52.458;20.914;2023-01-08T17:30:21;27.50;;;21.60;;
59416;SDS011;45222;52.458;20.914;2023-01-08T17:34:11;26.50;;;20.80;;
59416;SDS011;45222;52.458;20.914;2023-01-08T17:38:00;24.00;;;11.80;;
59416;SDS011;45222;52.458;20.914;2023-01-08T17:41:47;28.70;;;22.30;;
59416;SDS011;45222;52.458;20.914;2023-01-08T17:45:53;26.40;;;22.30;;
59416;SDS011;45222;52.458;20.914;2023-01-08T17:49:41;25.90;;;11.60;;
59416;SDS011;45222;52.458;20.914;2023-01-08T17:53:29;29.60;;;23.60;;
59416;SDS011;45222;52.458;20.914;2023-01-08T17:57:17;25.60;;;20.10;;
59416;SDS011;45222;52.458;20.914;2023-01-08T18:01:08;25.60;;;12.30;;
59416;SDS011;45222;52.458;20.914;2023-01-08T18:04:57;26.00;;;20.50;;
59416;SDS011;45222;52.458;20.914;2023-01-08T18:08:45;27.40;;;21.30;;
59416;SDS011;45222;52.458;20.914;2023-01-08T18:12:33;23.90;;;12.80;;
59416;SDS011;45222;52.458;20.914;2023-01-08T18:16:21;27.40;;;21.90;;
59416;SDS011;45222;52.458;20.914;2023-01-08T18:20:10;26.90;;;20.90;;
59416;SDS011;45222;52.458;20.914;2023-01-08T18:23:58;28.50;;;22.30;;
59416;SDS011;45222;52.458;20.914;2023-01-08T18:27:46;29.50;;;22.80;;
59416;SDS011;45222;52.458;20.914;2023-01-08T18:31:34;29.10;;;23.10;;
59416;SDS011;45222;52.458;20.914;2023-01-08T18:35:22;30.10;;;24.90;;
59416;SDS011;45222;52.458;20.914;2023-01-08T18:39:11;31.50;;;14.50;;
59416;SDS011;45222;52.458;20.914;2023-01-08T18:42:59;29.00;;;23.00;;
59416;SDS011;45222;52.458;20.914;2023-01-08T18:46:48;32.50;;;24.20;;
59416;SDS011;45222;52.458;20.914;2023-01-08T18:50:37;32.10;;;25.20;;
59416;SDS011;45222;52.458;20.914;2023-01-08T18:54:26;33.70;;;13.60;;
59416;SDS011;45222;52.458;20.914;2023-01-08T18:58:14;35.30;;;27.40;;
59416;SDS011;45222;52.458;20.914;2023-01-08T19:02:02;33.00;;;25.80;;
59416;SDS011;45222;52.458;20.914;2023-01-08T19:05:50;30.40;;;24.70;;
59416;SDS011;45222;52.458;20.914;2023-01-08T19:09:38;30.70;;;24.70;;
59416;SDS011;45222;52.458;20.914;2023-01-08T19:13:26;32.70;;;25.00;;
59416;SDS011;45222;52.458;20.914;2023-01-08T19:17:14;31.10;;;24.90;;
59416;SDS011;45222;52.458;20.914;2023-01-08T19:21:02;31.20;;;14.00;;
59416;SDS011;45222;52.458;20.914;2023-01-08T19:24:52;33.80;;;26.80;;
59416;SDS011;45222;52.458;20.914;2023-01-08T19:28:41;35.80;;;27.40;;
59416;SDS011;45222;52.458;20.914;2023-01-08T19:32:29;32.90;;;15.00;;
59416;SDS011;45222;52.458;20.914;2023-01-08T19:36:17;34.40;;;25.50;;
59416;SDS011;45222;52.458;20.914;2023-01-08T19:40:07;32.40;;;25.00;;
59416;SDS011;45222;52.458;20.914;2023-01-08T19:43:56;35.00;;;26.30;;
59416;SDS011;45222;52.458;20.914;2023-01-08T19:47:44;37.20;;;16.70;;
59416;SDS011;45222;52.458;20.914;2023-01-08T19:51:32;35.80;;;29.00;;
59416;SDS011;45222;52.458;20.914;2023-01-08T19:55:20;39.60;;;30.60;;
59416;SDS011;45222;52.458;20.914;2023-01-08T19:59:09;44.10;;;32.70;;
59416;SDS011;45222;52.458;20.914;2023-01-08T20:06:43;38.00;;;28.50;;
59416;SDS011;45222;52.458;20.914;2023-01-08T20:10:32;35.80;;;27.40;;
59416;SDS011;45222;52.458;20.914;2023-01-08T20:14:20;37.40;;;28.20;;
59416;SDS011;45222;52.458;20.914;2023-01-08T20:18:07;36.00;;;27.80;;
59416;SDS011;45222;52.458;20.914;2023-01-08T20:21:56;36.50;;;28.50;;
59416;SDS011;45222;52.458;20.914;2023-01-08T20:25:44;37.60;;;15.80;;
59416;SDS011;45222;52.458;20.914;2023-01-08T20:29:33;40.60;;;32.20;;
59416;SDS011;45222;52.458;20.914;2023-01-08T20:33:21;41.80;;;31.40;;
59416;SDS011;45222;52.458;20.914;2023-01-08T20:37:09;36.80;;;16.80;;
59416;SDS011;45222;52.458;20.914;2023-01-08T20:40:58;37.30;;;28.60;;
59416;SDS011;45222;52.458;20.914;2023-01-08T20:44:45;37.90;;;28.40;;
59416;SDS011;45222;52.458;20.914;2023-01-08T20:48:34;37.90;;;29.20;;
59416;SDS011;45222;52.458;20.914;2023-01-08T20:52:22;39.90;;;16.20;;
59416;SDS011;45222;52.458;20.914;2023-01-08T20:56:10;37.90;;;29.70;;
59416;SDS011;45222;52.458;20.914;2023-01-08T21:03:46;37.10;;;17.10;;
59416;SDS011;45222;52.458;20.914;2023-01-08T21:07:35;40.80;;;31.60;;
59416;SDS011;45222;52.458;20.914;2023-01-08T21:11:23;39.60;;;29.80;;
59416;SDS011;45222;52.458;20.914;2023-01-08T21:15:12;43.90;;;18.90;;
59416;SDS011;45222;52.458;20.914;2023-01-08T21:19:00;42.70;;;31.10;;
59416;SDS011;45222;52.458;20.914;2023-01-08T21:22:49;42.80;;;32.20;;
59416;SDS011;45222;52.458;20.914;2023-01-08T21:26:37;48.00;;;34.50;;
59416;SDS011;45222;52.458;20.914;2023-01-08T21:30:29;43.00;;;31.80;;
59416;SDS011;45222;52.458;20.914;2023-01-08T21:34:17;41.20;;;31.30;;
59416;SDS011;45222;52.458;20.914;2023-01-08T21:38:05;39.40;;;29.60;;
59416;SDS011;45222;52.458;20.914;2023-01-08T21:41:53;40.90;;;29.80;;
59416;SDS011;45222;52.458;20.914;2023-01-08T21:46:00;41.70;;;32.10;;
59416;SDS011;45222;52.458;20.914;2023-01-08T21:49:49;42.00;;;31.90;;
59416;SDS011;45222;52.458;20.914;2023-01-08T21:53:38;39.10;;;30.30;;
59416;SDS011;45222;52.458;20.914;2023-01-08T21:57:26;42.80;;;30.20;;
59416;SDS011;45222;52.458;20.914;2023-01-08T22:01:16;41.60;;;30.80;;
59416;SDS011;45222;52.458;20.914;2023-01-08T22:08:51;40.00;;;16.50;;
59416;SDS011;45222;52.458;20.914;2023-01-08T22:12:39;42.90;;;31.30;;
59416;SDS011;45222;52.458;20.914;2023-01-08T22:16:27;42.20;;;17.30;;
59416;SDS011;45222;52.458;20.914;2023-01-08T22:20:15;42.30;;;19.00;;
59416;SDS011;45222;52.458;20.914;2023-01-08T22:24:03;40.80;;;29.40;;
59416;SDS011;45222;52.458;20.914;2023-01-08T22:27:51;42.00;;;32.00;;
59416;SDS011;45222;52.458;20.914;2023-01-08T22:31:40;45.40;;;32.60;;
59416;SDS011;45222;52.458;20.914;2023-01-08T22:35:28;41.80;;;30.80;;
59416;SDS011;45222;52.458;20.914;2023-01-08T22:39:16;40.20;;;28.90;;
59416;SDS011;45222;52.458;20.914;2023-01-08T22:43:04;39.70;;;29.70;;
59416;SDS011;45222;52.458;20.914;2023-01-08T22:46:52;38.40;;;29.30;;
59416;SDS011;45222;52.458;20.914;2023-01-08T22:50:40;40.00;;;31.10;;